Time;durP1;ratioP1;P1;durP2;ratioP2;P2;SDS_P1;SDS_P2;PMS_P1;PMS_P2;Temp;Humidity;BMP_temperature;BMP_pressure;BME280_temperature;BME280_humidity;BME280_pressure;Samples;Min_cycle;Max_cycle;Signal;HPM_P1;HPM_P2
2022/11/11 00:00:42;;;;;;;8.37;2.70;;;;;;;12.27;82.41;102631.38;5022523;28;20218;-77
2022/11/11 00:03:26;;;;;;;12.07;2.53;;;;;;;12.27;82.39;102639.06;5019235;28;20245;-77
2022/11/11 00:06:13;;;;;;;9.63;2.70;;;;;;;12.29;82.22;102644.25;5018889;28;20301;-78
2022/11/11 00:08:58;;;;;;;16.63;3.17;;;;;;;12.28;82.25;102643.41;5010861;28;20274;-77
2022/11/11 00:11:42;;;;;;;6.40;2.63;;;;;;;12.27;82.54;102653.59;5030398;28;20232;-77
2022/11/11 00:14:26;;;;;;;6.70;2.53;;;;;;;12.27;82.49;102663.88;5022325;28;20233;-77
2022/11/11 00:26:25;;;;;;;9.40;2.90;;;;;;;12.26;82.43;102683.53;5025125;28;20222;-77
2022/11/11 00:29:10;;;;;;;8.33;3.50;;;;;;;12.26;82.75;102680.09;5007486;28;20222;-77
2022/11/11 00:41:18;;;;;;;7.93;3.97;;;;;;;12.19;83.45;102681.53;5014250;28;20195;-77
2022/11/11 00:44:02;;;;;;;8.53;3.83;;;;;;;12.18;83.36;102656.66;5013703;28;20778;-77
2022/11/11 00:52:52;;;;;;;8.30;4.10;;;;;;;12.15;83.47;102665.91;5017833;28;20694;-77
2022/11/11 00:55:37;;;;;;;8.20;4.00;;;;;;;12.13;83.63;102667.56;5019477;28;20189;-77
2022/11/11 00:58:21;;;;;;;10.87;4.70;;;;;;;12.12;83.55;102671.78;5015860;28;20197;-77
2022/11/11 01:01:06;;;;;;;9.20;4.70;;;;;;;12.12;83.59;102671.78;5017331;28;20214;-78
2022/11/11 01:03:49;;;;;;;10.67;4.93;;;;;;;12.11;83.73;102667.47;5025677;28;20218;-77
2022/11/11 01:06:34;;;;;;;8.67;4.17;;;;;;;12.13;83.96;102667.56;5016808;28;20206;-77
2022/11/11 01:09:17;;;;;;;8.83;4.60;;;;;;;12.08;83.90;102669.91;5028950;28;20205;-78
2022/11/11 01:12:02;;;;;;;9.43;4.63;;;;;;;12.06;84.13;102674.13;5017812;28;20229;-77
2022/11/11 01:14:45;;;;;;;11.03;4.47;;;;;;;12.06;84.35;102684.38;5022905;28;20222;-77
2022/11/11 01:17:29;;;;;;;11.93;4.87;;;;;;;12.04;84.01;102675.75;5015032;28;20266;-78
2022/11/11 01:20:13;;;;;;;8.27;4.23;;;;;;;12.05;84.28;102682.63;5027547;28;20189;-77
2022/11/11 01:22:58;;;;;;;10.03;5.00;;;;;;;12.04;84.04;102677.44;5022110;28;20268;-77
2022/11/11 01:25:42;;;;;;;7.77;4.77;;;;;;;12.05;84.24;102684.31;5022599;28;20225;-77
2022/11/11 01:28:26;;;;;;;8.57;5.43;;;;;;;12.02;84.17;102686.75;5030405;28;20197;-77
2022/11/11 01:31:12;;;;;;;8.37;5.10;;;;;;;12.02;84.26;102692.75;5023699;28;20249;-77
2022/11/11 01:33:56;;;;;;;10.23;5.83;;;;;;;11.98;84.13;102684.88;5022623;28;20226;-77
2022/11/11 01:36:40;;;;;;;11.03;5.63;;;;;;;11.96;84.52;102691.63;5024383;28;20976;-77
2022/11/11 01:39:24;;;;;;;9.33;5.30;;;;;;;11.98;84.67;102700.28;5019681;28;20230;-77
2022/11/11 01:42:08;;;;;;;9.07;5.10;;;;;;;11.98;85.01;102690.88;5025177;28;20197;-77
2022/11/11 01:44:53;;;;;;;9.97;6.00;;;;;;;11.98;84.82;102687.44;5017257;28;20694;-77
2022/11/11 01:50:40;;;;;;;9.70;5.80;;;;;;;11.96;84.80;102686.50;5011402;28;20256;-77
2022/11/11 01:53:24;;;;;;;11.50;6.17;;;;;;;11.93;85.20;102676.09;5015964;28;20198;-77
2022/11/11 01:56:09;;;;;;;11.40;6.10;;;;;;;11.93;84.82;102679.53;5026093;28;20269;-77
2022/11/11 01:58:57;;;;;;;8.53;5.43;;;;;;;11.92;85.20;102680.34;5023386;28;20277;-77
2022/11/11 02:01:41;;;;;;;12.07;5.30;;;;;;;11.90;85.22;102681.09;5015622;28;20245;-78
2022/11/11 02:07:30;;;;;;;10.17;5.53;;;;;;;11.87;85.21;102668.13;5015186;28;20678;-77
2022/11/11 02:10:17;;;;;;;9.67;5.03;;;;;;;11.84;85.67;102671.44;5019152;28;20214;-77
2022/11/11 02:16:04;;;;;;;11.17;4.90;;;;;;;11.80;85.28;102672.09;5019840;28;20194;-77
2022/11/11 02:18:48;;;;;;;9.63;4.30;;;;;;;11.80;85.50;102666.13;5025950;28;20213;-77
2022/11/11 02:21:36;;;;;;;11.47;5.00;;;;;;;11.78;85.55;102673.75;5013657;28;20282;-77
2022/11/11 02:24:22;;;;;;;9.23;4.73;;;;;;;11.78;85.71;102668.59;5022227;28;20596;-77
2022/11/11 02:27:10;;;;;;;13.10;4.53;;;;;;;11.77;85.61;102664.28;5017092;28;20194;-77
2022/11/11 02:29:57;;;;;;;7.30;4.10;;;;;;;11.77;85.45;102665.97;5026699;28;20344;-77
2022/11/11 02:32:43;;;;;;;9.70;4.43;;;;;;;11.77;85.74;102668.53;5013431;28;20330;-77
2022/11/11 02:35:32;;;;;;;14.03;5.00;;;;;;;11.75;85.59;102663.31;5021215;28;20217;-77
2022/11/11 02:38:16;;;;;;;16.03;4.53;;;;;;;11.76;85.78;102665.06;5021517;28;20266;-77
2022/11/11 02:44:03;;;;;;;12.07;5.10;;;;;;;11.74;85.81;102646.19;5024485;28;20241;-76
2022/11/11 02:46:47;;;;;;;9.60;4.37;;;;;;;11.75;86.07;102652.22;5023790;28;20218;-77
2022/11/11 02:49:31;;;;;;;11.17;4.30;;;;;;;11.75;86.05;102652.22;5018722;28;20216;-77
2022/11/11 02:52:15;;;;;;;7.10;4.40;;;;;;;11.72;86.17;102652.94;5011594;28;20198;-77
2022/11/11 02:55:00;;;;;;;9.10;4.80;;;;;;;11.71;86.04;102653.75;5019026;28;20587;-77
2022/11/11 02:57:44;;;;;;;8.03;4.53;;;;;;;11.68;86.18;102639.91;5030292;28;20214;-77
2022/11/11 03:00:28;;;;;;;9.60;4.77;;;;;;;11.66;86.21;102642.41;5023677;28;20197;-77
2022/11/11 03:03:12;;;;;;;8.73;4.33;;;;;;;11.66;86.03;102642.41;5024727;28;20260;-77
2022/11/11 03:05:56;;;;;;;13.73;5.00;;;;;;;11.65;85.64;102656.03;5017889;28;20786;-77
2022/11/11 03:08:40;;;;;;;11.03;4.27;;;;;;;11.61;86.11;102661.84;5026465;28;20263;-77
2022/11/11 03:11:26;;;;;;;8.50;3.83;;;;;;;11.59;86.24;102654.84;5027106;28;20250;-77
2022/11/11 03:14:11;;;;;;;14.47;4.90;;;;;;;11.55;86.24;102658.09;5024973;28;20230;-77
2022/11/11 03:21:03;;;;;;;8.70;4.40;;;;;;;11.47;85.81;102679.97;5027059;28;20676;-77
2022/11/11 03:23:09;;;;;;;7.40;4.30;;;;;;;11.46;86.05;102681.66;5025789;28;20194;-78
2022/11/11 03:25:54;;;;;;;10.77;4.43;;;;;;;11.44;86.23;102685.84;5020470;28;20261;-77
2022/11/11 03:28:37;;;;;;;11.97;5.43;;;;;;;11.45;86.38;102689.28;5028674;28;20249;-77
2022/11/11 03:31:21;;;;;;;9.87;4.53;;;;;;;11.43;86.69;102696.03;5015540;28;20265;-77
2022/11/11 03:34:17;;;;;;;10.27;5.47;;;;;;;11.40;85.86;102694.22;5019741;28;20218;-77
2022/11/11 03:40:07;;;;;;;10.60;4.93;;;;;;;11.37;86.33;102699.19;5020515;28;20197;-77
2022/11/11 03:42:51;;;;;;;10.93;5.00;;;;;;;11.36;86.38;102705.16;5025836;28;20294;-78
2022/11/11 03:45:35;;;;;;;11.50;4.83;;;;;;;11.36;86.53;102696.56;5026381;28;20640;-79
2022/11/11 03:48:19;;;;;;;12.83;6.10;;;;;;;11.33;86.80;102702.44;5020297;28;20567;-79
2022/11/11 03:51:03;;;;;;;9.13;5.60;;;;;;;11.34;86.60;102705.88;5026161;28;20189;-77
2022/11/11 03:53:48;;;;;;;12.20;5.30;;;;;;;11.34;86.81;102699.03;5025333;28;20710;-78
2022/11/11 03:56:32;;;;;;;11.80;5.83;;;;;;;11.32;86.67;102692.97;5024163;28;20229;-78
2022/11/11 03:59:15;;;;;;;12.17;5.80;;;;;;;11.32;86.62;102698.13;5023104;28;20236;-79
2022/11/11 04:11:48;;;;;;;12.40;5.90;;;;;;;11.27;87.39;102693.56;5018020;28;20205;-78
2022/11/11 04:17:46;;;;;;;14.23;6.97;;;;;;;11.27;87.27;102689.34;5020337;28;20213;-78
2022/11/11 04:23:33;;;;;;;10.30;6.17;;;;;;;11.29;87.42;102700.53;5027788;28;20646;-78
2022/11/11 04:26:17;;;;;;;11.93;6.60;;;;;;;11.29;87.41;102710.78;5026478;28;20699;-78
2022/11/11 04:35:12;;;;;;;13.33;5.90;;;;;;;11.31;87.45;102721.13;5023561;28;20271;-78
2022/11/11 04:41:02;;;;;;;12.80;5.90;;;;;;;11.29;87.54;102717.63;5024400;28;20256;-79
2022/11/11 04:41:02;;;;;;;13.97;6.13;;;;;;;11.29;87.48;102721.03;5026999;28;20260;-78
2022/11/11 04:46:50;;;;;;;10.13;6.00;;;;;;;11.29;87.30;102717.63;5021684;28;20265;-79
2022/11/11 04:49:34;;;;;;;12.83;5.93;;;;;;;11.29;87.40;102720.19;5029098;28;20213;-78
2022/11/11 04:52:30;;;;;;;11.60;6.20;;;;;;;11.27;87.58;102721.78;5023189;28;20288;-77
2022/11/11 04:58:20;;;;;;;11.57;5.67;;;;;;;11.25;87.64;102731.97;5015617;28;20202;-78
2022/11/11 05:01:04;;;;;;;8.73;5.80;;;;;;;11.27;87.57;102730.38;5027663;28;20206;-79
2022/11/11 05:03:48;;;;;;;13.27;6.43;;;;;;;11.24;87.47;102729.34;5023342;28;20234;-78
2022/11/11 05:09:36;;;;;;;13.03;6.57;;;;;;;11.23;87.65;102727.56;5013985;28;20210;-78
2022/11/11 05:12:19;;;;;;;11.07;6.37;;;;;;;11.21;87.62;102713.81;5025640;28;20206;-77
2022/11/11 05:21:21;;;;;;;11.30;6.97;;;;;;;11.18;87.79;102734.16;5028547;28;20255;-77
2022/11/11 05:27:08;;;;;;;8.97;5.53;;;;;;;11.15;88.35;102722.09;5021925;28;20253;-78
2022/11/11 05:29:52;;;;;;;11.43;6.67;;;;;;;11.13;88.36;102708.31;5015577;28;20222;-77
2022/11/11 05:32:37;;;;;;;12.70;6.87;;;;;;;11.13;87.65;102707.44;5022795;28;20205;-78
2022/11/11 05:35:22;;;;;;;10.23;7.00;;;;;;;11.13;87.95;102697.19;5022309;28;20229;-78
2022/11/11 05:38:21;;;;;;;13.03;7.47;;;;;;;11.12;88.42;102700.56;5027490;28;20625;-78
2022/11/11 05:41:07;;;;;;;12.60;7.10;;;;;;;11.11;88.49;102699.66;5023049;28;20239;-78
2022/11/11 05:43:51;;;;;;;12.03;6.83;;;;;;;11.10;88.64;102713.28;5015165;28;20320;-78
2022/11/11 05:46:35;;;;;;;13.07;7.00;;;;;;;11.10;88.80;102691.94;5023267;28;20222;-79
2022/11/11 05:49:19;;;;;;;11.90;7.20;;;;;;;11.10;88.34;102700.47;5027881;28;20205;-77
2022/11/11 05:52:04;;;;;;;11.33;6.80;;;;;;;11.09;88.68;102701.28;5025334;28;20268;-78
2022/11/11 05:54:48;;;;;;;16.43;8.00;;;;;;;11.11;88.55;102716.75;5025750;28;20294;-79
2022/11/11 05:57:32;;;;;;;19.77;8.20;;;;;;;11.10;88.44;102723.56;5019955;28;20237;-79
2022/11/11 06:00:16;;;;;;;12.03;8.03;;;;;;;11.11;88.75;102714.19;5022630;28;20261;-78
2022/11/11 06:03:03;;;;;;;16.30;8.70;;;;;;;11.10;88.82;102710.72;5028303;28;20254;-78
2022/11/11 06:05:47;;;;;;;16.00;9.10;;;;;;;11.12;89.15;102727.09;5015733;28;20258;-78
2022/11/11 06:08:31;;;;;;;13.10;7.80;;;;;;;11.11;89.11;102730.44;5025749;28;20202;-79
2022/11/11 06:11:15;;;;;;;15.17;8.37;;;;;;;11.11;89.03;102735.56;5023900;28;20830;-78
2022/11/11 06:13:59;;;;;;;14.30;9.60;;;;;;;11.10;89.29;102735.50;5026381;28;20225;-77
2022/11/11 06:16:42;;;;;;;12.33;8.13;;;;;;;11.08;89.27;102735.44;5028649;28;20792;-79
2022/11/11 06:19:26;;;;;;;18.90;9.63;;;;;;;11.07;89.32;102738.78;5024973;28;20257;-79
2022/11/11 06:22:10;;;;;;;15.00;9.17;;;;;;;11.05;89.41;102732.72;5017797;28;20186;-78
2022/11/11 06:26:11;;;;;;;18.87;9.40;;;;;;;11.04;88.99;102743.78;5021481;28;20224;-78
2022/11/11 06:27:58;;;;;;;17.47;9.40;;;;;;;11.06;89.18;102756.69;5009131;28;20737;-78
2022/11/11 06:30:43;;;;;;;16.20;9.43;;;;;;;11.04;89.52;102751.47;5022708;28;20213;-77
2022/11/11 06:33:28;;;;;;;16.73;9.07;;;;;;;11.04;89.72;102751.47;5022664;28;20205;-78
2022/11/11 06:36:14;;;;;;;12.37;8.83;;;;;;;11.03;89.76;102754.84;5024949;28;20240;-78
2022/11/11 06:38:59;;;;;;;16.00;9.83;;;;;;;11.01;89.61;102745.31;5026469;28;20716;-78
2022/11/11 06:41:42;;;;;;;17.20;9.60;;;;;;;11.01;90.07;102753.88;5021216;28;20270;-78
2022/11/11 06:44:26;;;;;;;16.67;9.53;;;;;;;11.00;90.07;102748.66;5004516;28;20229;-77
2022/11/11 06:47:10;;;;;;;17.50;10.27;;;;;;;10.99;90.02;102749.47;5017694;28;20198;-77
2022/11/11 06:49:54;;;;;;;14.60;9.53;;;;;;;10.98;89.98;102753.75;5022123;28;20214;-78
2022/11/11 06:52:38;;;;;;;17.40;9.47;;;;;;;10.99;90.08;102757.16;5024414;28;20213;-78
2022/11/11 06:55:22;;;;;;;14.27;9.77;;;;;;;10.99;89.97;102767.44;5017790;28;20221;-78
2022/11/11 06:58:15;;;;;;;16.07;10.20;;;;;;;10.95;89.84;102774.09;5011062;28;20252;-78
2022/11/11 07:01:04;;;;;;;13.83;9.20;;;;;;;10.97;89.98;102787.00;5025961;28;20193;-78
2022/11/11 07:03:48;;;;;;;16.47;10.03;;;;;;;10.94;90.00;102790.28;5025187;28;20283;-78
2022/11/11 07:06:32;;;;;;;23.30;10.87;;;;;;;10.96;90.12;102780.97;5014874;28;20226;-78
2022/11/11 07:09:16;;;;;;;15.50;10.07;;;;;;;10.92;90.24;102791.88;5019846;28;20198;-78
2022/11/11 07:12:00;;;;;;;21.40;10.47;;;;;;;10.96;90.29;102793.78;5024271;28;20209;-78
2022/11/11 07:14:44;;;;;;;16.23;9.40;;;;;;;10.96;90.06;102792.94;5015122;28;20247;-78
2022/11/11 07:17:28;;;;;;;16.90;10.27;;;;;;;10.95;90.48;102806.53;5000045;28;20235;-77
2022/11/11 07:20:12;;;;;;;21.30;11.17;;;;;;;10.93;90.64;102809.00;4993934;28;20195;-78
2022/11/11 07:22:56;;;;;;;18.27;11.40;;;;;;;10.93;90.50;102803.88;5009285;28;20282;-78
2022/11/11 07:25:40;;;;;;;20.70;12.20;;;;;;;10.90;91.08;102806.31;4999903;28;20763;-77
2022/11/11 07:28:24;;;;;;;17.90;11.03;;;;;;;10.94;91.00;102810.78;5004964;28;20209;-78
2022/11/11 07:31:08;;;;;;;15.70;11.07;;;;;;;10.94;91.19;102823.59;4994185;28;20206;-78
2022/11/11 07:33:53;;;;;;;21.83;11.93;;;;;;;10.93;90.94;102809.00;4999432;28;20285;-77
2022/11/11 07:36:37;;;;;;;20.27;13.80;;;;;;;10.92;91.89;102814.09;5006758;28;20198;-77
2022/11/11 07:39:21;;;;;;;22.03;13.00;;;;;;;10.89;91.89;102804.56;5011297;28;20187;-78
2022/11/11 07:42:05;;;;;;;20.60;12.47;;;;;;;10.93;92.30;102818.41;5008744;28;20241;-77
2022/11/11 07:44:49;;;;;;;22.27;13.50;;;;;;;10.93;92.27;102824.38;5003133;28;20250;-78
2022/11/11 07:47:34;;;;;;;19.03;12.07;;;;;;;10.96;92.66;102826.25;5005922;28;20198;-78
2022/11/11 07:50:17;;;;;;;24.07;13.00;;;;;;;10.91;92.90;102832.81;5006306;28;20555;-78
2022/11/11 07:53:01;;;;;;;21.23;13.17;;;;;;;10.87;93.73;102824.09;5005228;28;20279;-78
2022/11/11 07:55:45;;;;;;;25.00;12.73;;;;;;;10.90;94.14;102826.81;5009357;28;20226;-77
2022/11/11 07:58:29;;;;;;;26.73;13.47;;;;;;;10.90;93.46;102833.63;5003783;28;20205;-78
2022/11/11 08:01:13;;;;;;;22.70;13.97;;;;;;;10.93;93.56;102834.63;5002368;28;20201;-78
2022/11/11 08:03:57;;;;;;;19.03;12.97;;;;;;;10.94;93.81;102826.16;5014107;28;20298;-78
2022/11/11 08:06:41;;;;;;;24.07;14.10;;;;;;;10.97;93.80;102841.69;5004626;28;20210;-78
2022/11/11 08:09:25;;;;;;;22.00;13.60;;;;;;;10.98;93.97;102842.56;5000534;28;20194;-78
2022/11/11 08:15:13;;;;;;;22.57;14.80;;;;;;;10.99;94.68;102844.31;5010353;28;20608;-77
2022/11/11 08:17:56;;;;;;;22.63;14.57;;;;;;;10.97;94.42;102849.38;5006639;28;20201;-78
2022/11/11 08:20:41;;;;;;;24.30;14.60;;;;;;;11.01;93.98;102855.56;4999480;28;20282;-78
2022/11/11 08:23:31;;;;;;;20.47;13.77;;;;;;;11.07;93.92;102860.97;5002808;28;20262;-78
2022/11/11 08:26:16;;;;;;;21.20;13.97;;;;;;;11.09;93.67;102862.81;5002633;28;20243;-78
2022/11/11 08:29:00;;;;;;;22.97;13.47;;;;;;;11.11;92.99;102856.06;5013675;28;20205;-78
2022/11/11 08:31:44;;;;;;;25.83;13.97;;;;;;;11.15;93.02;102864.81;5003704;28;20198;-78
2022/11/11 08:34:28;;;;;;;21.07;13.67;;;;;;;11.20;92.43;102861.63;5007668;28;20931;-78
2022/11/11 08:37:12;;;;;;;19.80;13.07;;;;;;;11.29;91.93;102868.94;5008222;28;20190;-77
2022/11/11 08:39:56;;;;;;;22.77;13.47;;;;;;;11.33;91.81;102868.28;5005689;28;20238;-77
2022/11/11 08:42:41;;;;;;;17.73;13.83;;;;;;;11.35;91.13;102866.66;5001781;28;20202;-77
2022/11/11 08:45:25;;;;;;;19.83;13.70;;;;;;;11.38;91.40;102864.25;5007522;28;20877;-77
2022/11/11 08:48:09;;;;;;;18.67;13.50;;;;;;;11.38;90.83;102879.63;5003679;28;20683;-78
2022/11/11 08:50:53;;;;;;;22.57;13.37;;;;;;;11.42;90.55;102882.41;5003752;28;20279;-78
2022/11/11 08:53:37;;;;;;;17.80;13.43;;;;;;;11.43;90.59;102880.75;5004367;28;20221;-77
2022/11/11 08:56:21;;;;;;;18.77;13.30;;;;;;;11.45;90.66;102884.25;5003783;28;20188;-78
2022/11/11 08:59:05;;;;;;;19.87;13.60;;;;;;;11.48;90.42;102890.38;5002184;28;20198;-78
2022/11/11 09:01:49;;;;;;;20.70;13.40;;;;;;;11.48;89.73;102890.38;5002267;28;20241;-79
2022/11/11 09:04:33;;;;;;;17.80;12.93;;;;;;;11.46;90.04;102894.59;5005731;28;20744;-78
2022/11/11 09:07:17;;;;;;;19.03;13.77;;;;;;;11.45;90.05;102895.41;5000079;28;20925;-78
2022/11/11 09:10:01;;;;;;;19.43;13.90;;;;;;;11.48;90.59;102900.66;4993215;28;20182;-79
2022/11/11 09:12:45;;;;;;;18.80;13.73;;;;;;;11.45;89.97;102904.75;5003943;28;20687;-77
2022/11/11 09:15:29;;;;;;;25.47;13.43;;;;;;;11.45;89.73;102909.91;5009595;28;20214;-77
2022/11/11 09:18:13;;;;;;;19.10;13.43;;;;;;;11.42;89.86;102910.63;5003879;28;20202;-79
2022/11/11 09:20:59;;;;;;;22.27;14.30;;;;;;;11.46;90.12;102909.97;5006098;28;20738;-79
2022/11/11 09:23:43;;;;;;;23.40;14.73;;;;;;;11.40;89.65;102912.25;5000668;28;20723;-78
2022/11/11 09:26:27;;;;;;;21.63;14.50;;;;;;;11.38;90.43;102916.41;5003773;28;20210;-78
2022/11/11 09:29:11;;;;;;;21.37;14.17;;;;;;;11.41;90.24;102918.25;5002760;28;20193;-79
2022/11/11 09:31:55;;;;;;;22.03;14.20;;;;;;;11.40;90.37;102922.50;5010278;28;20253;-78
2022/11/11 09:34:39;;;;;;;19.70;14.40;;;;;;;11.44;90.72;102919.28;4996001;28;20272;-78
2022/11/11 09:37:23;;;;;;;23.07;14.30;;;;;;;11.44;90.56;102918.41;5008657;28;20198;-78
2022/11/11 09:40:20;;;;;;;19.23;14.23;;;;;;;11.41;90.52;102925.94;4983282;28;20234;-79
2022/11/11 09:43:52;;;;;;;24.17;14.50;;;;;;;11.34;90.65;102922.19;4999375;28;20222;-79
2022/11/11 09:47:00;;;;;;;24.97;15.50;;;;;;;11.36;90.24;102935.97;4983664;28;20272;-74
2022/11/11 09:50:02;;;;;;;20.97;14.37;;;;;;;11.42;90.61;102932.81;5001144;28;20206;-77
2022/11/11 09:52:56;;;;;;;20.70;13.73;;;;;;;11.45;90.71;102939.00;5006100;28;20201;-77
2022/11/11 09:55:53;;;;;;;19.90;13.37;;;;;;;11.58;90.58;102933.69;4995821;28;20261;-77
2022/11/11 09:58:46;;;;;;;20.03;14.00;;;;;;;11.61;90.71;102935.53;4995231;28;20225;-77
2022/11/11 10:01:41;;;;;;;19.13;14.73;;;;;;;11.54;90.25;102934.31;4999853;28;20195;-76
2022/11/11 10:05:02;;;;;;;19.53;14.20;;;;;;;11.55;90.11;102936.09;4996824;28;20278;-76
2022/11/11 10:08:13;;;;;;;21.67;14.13;;;;;;;11.67;89.71;102941.84;4993603;28;20201;-76
2022/11/11 10:10:59;;;;;;;20.70;14.77;;;;;;;11.60;89.90;102947.47;4993001;28;20241;-76
2022/11/11 10:13:43;;;;;;;22.10;14.00;;;;;;;11.62;89.61;102945.00;4997042;28;20214;-76
2022/11/11 10:17:02;;;;;;;22.10;14.77;;;;;;;11.56;89.63;102947.25;5002192;28;20198;-76
2022/11/11 10:20:13;;;;;;;25.20;15.60;;;;;;;11.49;89.25;102945.16;4998964;28;20231;-76
2022/11/11 10:23:14;;;;;;;22.90;15.60;;;;;;;11.41;90.20;102957.63;4995671;28;20203;-76
2022/11/11 10:26:05;;;;;;;22.67;14.73;;;;;;;11.43;89.99;102960.25;4987825;28;20215;-76
2022/11/11 10:28:52;;;;;;;21.83;15.43;;;;;;;11.41;89.74;102960.19;4992762;28;20234;-73
2022/11/11 10:31:38;;;;;;;20.77;15.63;;;;;;;11.43;89.33;102958.56;4999560;28;20202;-73
2022/11/11 10:34:32;;;;;;;21.47;15.03;;;;;;;11.48;89.15;102961.38;5007189;28;20756;-79
2022/11/11 10:37:40;;;;;;;23.60;16.13;;;;;;;11.49;89.10;102953.75;5006260;28;20182;-78
2022/11/11 10:40:28;;;;;;;21.30;14.07;;;;;;;11.54;89.12;102949.72;4989938;28;20246;-78
2022/11/11 10:43:22;;;;;;;22.40;15.73;;;;;;;11.54;88.94;102948.81;5005400;28;20222;-77
2022/11/11 10:46:14;;;;;;;25.00;15.33;;;;;;;11.49;88.97;102958.00;4999576;28;20227;-78
2022/11/11 10:49:06;;;;;;;21.00;14.67;;;;;;;11.51;88.70;102947.00;4995381;28;20218;-78
2022/11/11 10:52:12;;;;;;;28.07;14.70;;;;;;;11.54;88.73;102947.16;4996686;28;20258;-77
2022/11/11 10:55:13;;;;;;;22.10;14.53;;;;;;;11.50;88.92;102950.38;5003184;28;20218;-76
2022/11/11 10:58:03;;;;;;;19.93;14.00;;;;;;;11.54;88.60;102954.84;5003982;28;20193;-76
2022/11/11 11:00:50;;;;;;;22.67;14.83;;;;;;;11.64;88.25;102946.81;5001891;28;20223;-76
2022/11/11 11:03:54;;;;;;;23.07;14.80;;;;;;;11.56;87.82;102949.81;5005903;28;20264;-78
2022/11/11 11:06:42;;;;;;;21.17;13.63;;;;;;;11.53;88.05;102955.63;5001791;28;20314;-76
2022/11/11 11:09:47;;;;;;;19.40;13.70;;;;;;;11.45;88.25;102958.63;5000842;28;20227;-76
2022/11/11 11:12:40;;;;;;;21.93;13.47;;;;;;;11.50;88.29;102952.03;4986768;28;20195;-75
2022/11/11 11:15:27;;;;;;;19.93;13.97;;;;;;;11.50;88.51;102957.19;4997102;28;20226;-76
2022/11/11 11:18:13;;;;;;;18.17;11.87;;;;;;;11.48;88.52;102953.66;4995278;28;20190;-75
2022/11/11 11:21:06;;;;;;;18.63;13.23;;;;;;;11.55;88.17;102950.59;4994109;28;20262;-75
2022/11/11 11:23:50;;;;;;;17.37;12.77;;;;;;;11.56;88.25;102955.78;4993393;28;20265;-75
2022/11/11 11:26:46;;;;;;;18.20;12.83;;;;;;;11.67;88.20;102956.38;4990113;28;20648;-77
2022/11/11 11:29:43;;;;;;;19.70;13.17;;;;;;;11.67;88.00;102953.78;4986835;28;20206;-76
2022/11/11 11:32:29;;;;;;;21.20;12.93;;;;;;;11.67;87.39;102964.06;4990518;28;20253;-75
2022/11/11 11:35:38;;;;;;;17.50;12.17;;;;;;;11.62;87.16;102958.69;5005393;28;20242;-76
2022/11/11 11:38:39;;;;;;;16.87;11.73;;;;;;;11.57;87.08;102964.38;4991839;28;20316;-76
2022/11/11 11:41:38;;;;;;;17.90;12.33;;;;;;;11.71;87.44;102969.41;4995347;28;20264;-77
2022/11/11 11:44:26;;;;;;;16.87;11.83;;;;;;;11.68;86.91;102959.00;5005227;28;20234;-76
2022/11/11 11:47:26;;;;;;;14.33;11.47;;;;;;;11.59;86.75;102960.19;4991191;28;20229;-76
2022/11/11 11:50:21;;;;;;;16.17;11.90;;;;;;;11.67;86.66;102970.09;4986008;28;20194;-76
2022/11/11 11:53:05;;;;;;;14.90;11.43;;;;;;;11.82;86.20;102964.78;4989304;28;20203;-76
2022/11/11 11:56:02;;;;;;;15.57;11.03;;;;;;;11.96;85.21;102962.09;5000787;28;20199;-77
2022/11/11 11:59:02;;;;;;;15.67;10.57;;;;;;;12.01;85.28;102952.03;5003936;28;20245;-76
2022/11/11 12:01:58;;;;;;;15.30;11.33;;;;;;;11.81;85.31;102960.47;5003328;28;20190;-73
2022/11/11 12:04:48;;;;;;;14.90;10.20;;;;;;;11.89;85.61;102954.03;4989544;28;20231;-75
2022/11/11 12:07:59;;;;;;;13.90;10.37;;;;;;;11.93;85.43;102955.94;4997798;28;20249;-75
2022/11/11 12:10:53;;;;;;;15.60;10.70;;;;;;;11.84;85.38;102953.78;5000013;28;20202;-75
2022/11/11 12:13:49;;;;;;;13.73;10.43;;;;;;;11.87;85.33;102947.94;4996485;28;20234;-74
2022/11/11 12:16:52;;;;;;;12.13;9.77;;;;;;;11.90;85.37;102948.09;4984988;28;20203;-74
2022/11/11 12:19:51;;;;;;;15.33;10.37;;;;;;;12.02;85.41;102943.50;4997424;28;20740;-73
2022/11/11 12:22:54;;;;;;;14.73;10.03;;;;;;;12.09;85.44;102943.91;4994307;28;20195;-75
2022/11/11 12:25:49;;;;;;;11.60;8.80;;;;;;;12.00;85.64;102948.59;4995415;28;20266;-74
2022/11/11 12:28:43;;;;;;;10.80;8.97;;;;;;;11.94;86.31;102943.16;4994605;28;20199;-72
2022/11/11 12:31:47;;;;;;;11.07;8.67;;;;;;;11.96;86.38;102941.56;4994882;28;20288;-73
2022/11/11 12:34:46;;;;;;;13.40;9.60;;;;;;;11.95;86.27;102938.91;4989036;28;20217;-72
2022/11/11 12:38:18;;;;;;;11.03;8.57;;;;;;;11.97;87.00;102943.31;4996675;28;20627;-72
2022/11/11 12:41:21;;;;;;;12.67;9.00;;;;;;;11.90;86.52;102948.09;4981678;28;20281;-72
2022/11/11 12:44:10;;;;;;;11.47;7.93;;;;;;;11.99;87.08;102939.09;4992412;28;20273;-74
2022/11/11 12:47:26;;;;;;;12.17;8.97;;;;;;;12.07;86.64;102940.34;4993609;28;20331;-72
2022/11/11 12:50:25;;;;;;;12.97;8.63;;;;;;;12.15;86.77;102940.72;4994114;28;20230;-75
2022/11/11 12:53:19;;;;;;;11.63;8.17;;;;;;;12.14;86.56;102944.09;4996496;28;20202;-74
2022/11/11 12:56:22;;;;;;;10.53;7.40;;;;;;;12.13;86.57;102945.78;5006842;28;20198;-75
2022/11/11 12:59:27;;;;;;;11.27;8.53;;;;;;;12.11;87.11;102944.84;5004268;28;20620;-72
2022/11/11 13:02:42;;;;;;;12.77;7.70;;;;;;;12.08;86.67;102946.38;4995839;28;20229;-73
2022/11/11 13:05:29;;;;;;;11.93;7.60;;;;;;;12.10;87.52;102940.50;4997117;28;20229;-73
2022/11/11 13:08:58;;;;;;;8.50;7.43;;;;;;;12.11;87.27;102947.41;4994331;28;20205;-73
2022/11/11 13:12:06;;;;;;;10.87;7.83;;;;;;;12.16;87.70;102945.06;5001916;28;20201;-73
2022/11/11 13:15:12;;;;;;;13.30;7.90;;;;;;;12.16;87.27;102951.06;5002202;28;20226;-73
2022/11/11 13:17:59;;;;;;;12.40;7.60;;;;;;;12.20;87.44;102955.53;5001288;28;20634;-73
2022/11/11 13:21:03;;;;;;;11.17;7.90;;;;;;;12.27;87.42;102954.13;4994827;28;20202;-73
2022/11/11 13:23:47;;;;;;;8.93;7.20;;;;;;;12.33;86.77;102959.53;4995144;28;20226;-73
2022/11/11 13:26:38;;;;;;;11.93;7.77;;;;;;;12.29;87.39;102958.53;4995538;28;20261;-73
2022/11/11 13:29:43;;;;;;;10.63;7.57;;;;;;;12.35;86.99;102960.53;5001951;28;20331;-73
2022/11/11 13:32:33;;;;;;;10.80;7.23;;;;;;;12.39;86.96;102959.84;5001319;28;20246;-73
2022/11/11 13:35:48;;;;;;;11.83;7.17;;;;;;;12.47;86.97;102955.91;5001731;28;20282;-73
2022/11/11 13:38:38;;;;;;;8.57;6.73;;;;;;;12.53;86.45;102963.94;4994337;28;20214;-73
2022/11/11 13:41:35;;;;;;;11.23;7.03;;;;;;;12.60;86.10;102959.13;4980247;28;20304;-73
2022/11/11 13:44:24;;;;;;;11.83;7.57;;;;;;;12.69;85.87;102954.41;4996265;28;20228;-73
2022/11/11 13:47:18;;;;;;;10.73;6.87;;;;;;;12.77;85.05;102957.31;4998077;28;20287;-73
2022/11/11 13:50:12;;;;;;;8.23;6.83;;;;;;;12.82;85.11;102959.25;5004679;28;20246;-73
2022/11/11 13:53:02;;;;;;;10.57;7.03;;;;;;;12.98;84.37;102958.28;4995168;28;20279;-73
2022/11/11 13:55:46;;;;;;;7.50;6.67;;;;;;;13.22;83.28;102959.31;4999594;28;20197;-73
2022/11/11 13:58:38;;;;;;;10.50;6.80;;;;;;;13.27;82.54;102955.28;4998759;28;20250;-73
2022/11/11 14:01:23;;;;;;;8.53;6.50;;;;;;;13.51;81.96;102958.88;5000550;28;20206;-73
2022/11/11 14:04:09;;;;;;;8.07;6.63;;;;;;;14.01;80.04;102950.59;4996878;28;20265;-73
2022/11/11 14:06:53;;;;;;;12.20;6.43;;;;;;;14.16;78.44;102949.50;4998593;28;20797;-73
2022/11/11 14:09:59;;;;;;;17.07;6.90;;;;;;;14.38;78.04;102949.53;4993504;28;20222;-73
2022/11/11 14:12:54;;;;;;;9.20;6.07;;;;;;;14.60;76.29;102952.06;5001432;28;20194;-73
2022/11/11 14:15:43;;;;;;;9.30;6.27;;;;;;;14.44;77.13;102949.75;4994639;28;20251;-74
2022/11/11 14:18:42;;;;;;;8.43;6.10;;;;;;;14.49;76.97;102950.81;4999599;28;20206;-73
2022/11/11 14:21:55;;;;;;;12.37;5.73;;;;;;;14.58;76.47;102955.41;4992034;28;20195;-73